createdAt,value
2022-11-24T00:00:32.816Z,89.13
2022-11-24T00:03:35.949Z,89.12
2022-11-24T00:06:38.299Z,89.02
2022-11-24T00:09:40.819Z,89.11
2022-11-24T00:12:43.166Z,89.09
2022-11-24T00:15:45.703Z,88.96
2022-11-24T00:18:50.009Z,88.84
2022-11-24T00:21:52.565Z,88.82
2022-11-24T00:24:54.763Z,88.89
2022-11-24T00:27:57.258Z,88.96
2022-11-24T00:31:00.256Z,89.02
2022-11-24T00:34:10.186Z,89.04
2022-11-24T00:37:12.451Z,89.02
2022-11-24T00:40:14.936Z,89.02
2022-11-24T00:43:17.909Z,89.00
2022-11-24T00:46:21.463Z,88.96
2022-11-24T00:49:25.601Z,88.67
2022-11-24T00:52:28.119Z,88.90
2022-11-24T00:55:30.384Z,88.99
2022-11-24T00:58:33.987Z,88.85
2022-11-24T01:01:36.324Z,88.89
2022-11-24T01:04:38.885Z,88.77
2022-11-24T01:07:41.174Z,88.77
2022-11-24T01:10:44.118Z,88.67
2022-11-24T01:13:48.740Z,88.59
2022-11-24T01:16:51.823Z,88.82
2022-11-24T01:19:54.094Z,89.02
2022-11-24T01:22:56.621Z,89.05
2022-11-24T01:25:58.867Z,88.79
2022-11-24T01:29:01.431Z,88.75
2022-11-24T01:32:03.939Z,88.82
2022-11-24T01:35:07.213Z,88.77
2022-11-24T01:38:09.407Z,88.85
2022-11-24T01:41:13.112Z,88.70
2022-11-24T01:44:27.574Z,88.56
2022-11-24T01:47:43.565Z,88.50
2022-11-24T01:50:49.272Z,88.33
2022-11-24T01:53:58.185Z,88.01
2022-11-24T01:57:22.244Z,88.06
2022-11-24T02:00:24.827Z,88.07
2022-11-24T02:03:33.995Z,88.21
2022-11-24T02:06:38.082Z,88.13
2022-11-24T02:09:50.117Z,88.25
2022-11-24T02:12:56.039Z,88.24
2022-11-24T02:15:58.539Z,88.35
2022-11-24T02:19:03.455Z,88.26
2022-11-24T02:22:12.163Z,88.27
2022-11-24T02:25:33.843Z,88.43
2022-11-24T02:28:36.399Z,88.59
2022-11-24T02:31:47.610Z,88.66
2022-11-24T02:34:49.936Z,88.76
2022-11-24T02:37:52.420Z,88.73
2022-11-24T02:40:54.696Z,88.80
2022-11-24T02:44:01.610Z,88.69
2022-11-24T02:47:07.060Z,88.80
2022-11-24T02:50:10.240Z,88.77
2022-11-24T02:53:12.486Z,88.82
2022-11-24T02:56:15.046Z,88.98
2022-11-24T02:59:17.266Z,89.02
2022-11-24T03:02:19.813Z,89.08
2022-11-24T03:05:22.169Z,89.03
2022-11-24T03:08:24.657Z,88.70
2022-11-24T03:11:26.897Z,88.70
2022-11-24T03:14:29.325Z,88.59
2022-11-24T03:17:31.554Z,88.48
2022-11-24T03:20:34.147Z,88.36
2022-11-24T03:23:36.421Z,88.18
2022-11-24T03:26:38.974Z,88.14
2022-11-24T03:29:41.207Z,88.02
2022-11-24T03:32:43.779Z,87.67
2022-11-24T03:35:46.068Z,87.33
2022-11-24T03:38:48.606Z,87.26
2022-11-24T03:41:51.587Z,87.08
2022-11-24T03:44:54.127Z,87.01
2022-11-24T03:47:57.076Z,86.85
2022-11-24T03:51:01.676Z,86.58
2022-11-24T03:54:04.062Z,86.51
2022-11-24T03:57:06.560Z,86.13
2022-11-24T04:00:10.090Z,85.96
2022-11-24T04:03:12.705Z,85.93
2022-11-24T04:06:17.373Z,85.64
2022-11-24T04:09:19.884Z,85.44
2022-11-24T04:12:40.574Z,85.15
2022-11-24T04:15:43.923Z,85.16
2022-11-24T04:18:46.214Z,85.10
2022-11-24T04:21:48.775Z,85.01
2022-11-24T04:24:50.996Z,85.01
2022-11-24T04:27:55.162Z,84.75
2022-11-24T04:31:02.482Z,84.50
2022-11-24T04:34:05.054Z,84.19
2022-11-24T04:37:07.294Z,83.97
2022-11-24T04:40:11.635Z,83.95
2022-11-24T04:43:13.783Z,84.09
2022-11-24T04:46:17.116Z,84.19
2022-11-24T04:49:19.774Z,83.84
2022-11-24T04:52:24.078Z,83.93
2022-11-24T04:55:26.139Z,83.96
2022-11-24T04:58:28.621Z,83.81
2022-11-24T05:01:30.916Z,83.46
2022-11-24T05:04:33.970Z,83.24
2022-11-24T05:07:36.900Z,82.90
2022-11-24T05:10:40.171Z,82.12
2022-11-24T05:13:42.510Z,82.37
2022-11-24T05:16:45.032Z,82.22
2022-11-24T05:19:47.243Z,81.99
2022-11-24T05:22:49.822Z,81.98
2022-11-24T05:25:52.464Z,81.85
2022-11-24T05:28:55.018Z,82.05
2022-11-24T05:31:57.258Z,81.84
2022-11-24T05:35:02.081Z,81.93
2022-11-24T05:38:04.795Z,81.67
2022-11-24T05:41:07.281Z,81.51
2022-11-24T05:44:09.588Z,81.55
2022-11-24T05:47:12.078Z,81.54
2022-11-24T05:50:16.227Z,81.67
2022-11-24T05:53:18.707Z,81.82
2022-11-24T05:56:21.326Z,81.68
2022-11-24T05:59:23.829Z,81.59
2022-11-24T06:02:26.458Z,81.63
2022-11-24T06:05:29.926Z,81.73
2022-11-24T06:08:32.638Z,81.87
2022-11-24T06:11:35.159Z,81.58
2022-11-24T06:14:37.497Z,81.00
2022-11-24T06:17:41.132Z,80.64
2022-11-24T06:20:53.162Z,80.03
2022-11-24T06:24:05.978Z,80.45
2022-11-24T06:27:08.454Z,80.25
2022-11-24T06:30:12.295Z,80.09
2022-11-24T06:33:14.546Z,79.40
2022-11-24T06:36:17.038Z,79.54
2022-11-24T06:39:19.284Z,79.34
2022-11-24T06:42:21.859Z,79.01
2022-11-24T06:45:24.960Z,79.10
2022-11-24T06:48:28.395Z,79.07
2022-11-24T06:51:30.699Z,78.93
2022-11-24T06:54:33.424Z,79.04
2022-11-24T06:57:36.255Z,78.74
2022-11-24T07:00:38.934Z,78.90
2022-11-24T07:03:41.220Z,78.33
2022-11-24T07:06:44.494Z,78.67
2022-11-24T07:09:46.758Z,78.18
2022-11-24T07:12:49.306Z,77.77
2022-11-24T07:15:51.534Z,77.70
2022-11-24T07:18:54.749Z,77.23
2022-11-24T07:21:57.133Z,76.88
2022-11-24T07:24:59.886Z,76.45
2022-11-24T07:28:02.252Z,76.12
2022-11-24T07:31:13.466Z,76.09
2022-11-24T07:34:15.771Z,75.61
2022-11-24T07:37:18.412Z,75.05
2022-11-24T07:40:20.668Z,74.19
2022-11-24T07:43:23.210Z,73.65
2022-11-24T07:46:25.553Z,73.51
2022-11-24T07:49:28.439Z,73.48
2022-11-24T07:52:30.669Z,73.32
2022-11-24T07:55:33.181Z,73.25
2022-11-24T07:58:37.266Z,73.12
2022-11-24T08:01:43.306Z,73.06
2022-11-24T08:04:45.901Z,73.65
2022-11-24T08:07:48.232Z,73.09
2022-11-24T08:10:51.057Z,72.66
2022-11-24T08:13:53.377Z,72.70
2022-11-24T08:16:55.915Z,72.18
2022-11-24T08:19:58.241Z,72.45
2022-11-24T08:23:01.173Z,72.37
2022-11-24T08:26:05.674Z,71.99
2022-11-24T08:29:08.262Z,72.41
2022-11-24T08:32:16.143Z,72.33
2022-11-24T08:35:21.442Z,71.75
2022-11-24T08:38:24.076Z,71.58
2022-11-24T08:41:27.559Z,71.56
2022-11-24T08:44:29.998Z,71.59
2022-11-24T08:47:32.535Z,71.28
2022-11-24T08:50:35.695Z,71.40
2022-11-24T08:53:39.460Z,71.53
2022-11-24T08:56:42.389Z,71.67
2022-11-24T08:59:46.208Z,71.36
2022-11-24T09:02:56.729Z,71.24
2022-11-24T09:05:59.293Z,71.35
2022-11-24T09:09:01.602Z,70.79
2022-11-24T09:12:05.233Z,70.83
2022-11-24T09:15:10.143Z,70.51
2022-11-24T09:18:12.939Z,70.30
2022-11-24T09:21:19.088Z,69.71
2022-11-24T09:24:21.722Z,69.36
2022-11-24T09:27:24.091Z,69.13
2022-11-24T09:30:27.200Z,68.69
2022-11-24T09:33:30.454Z,68.50
2022-11-24T09:36:33.317Z,68.73
2022-11-24T09:39:35.798Z,68.49
2022-11-24T09:42:41.333Z,68.32
2022-11-24T09:46:11.198Z,68.26
2022-11-24T09:49:24.203Z,67.07
2022-11-24T09:52:52.315Z,66.36
2022-11-24T09:56:11.917Z,66.13
2022-11-24T09:59:20.970Z,65.50
2022-11-24T10:02:23.480Z,65.70
2022-11-24T10:05:29.211Z,65.89
2022-11-24T10:08:51.641Z,65.94
2022-11-24T10:12:18.386Z,66.11
2022-11-24T10:15:35.246Z,66.47
2022-11-24T10:18:45.120Z,66.87
2022-11-24T10:22:07.962Z,67.13
2022-11-24T10:25:16.459Z,67.21
2022-11-24T10:28:18.848Z,67.26
2022-11-24T10:31:21.372Z,67.33
2022-11-24T10:34:34.561Z,67.29
2022-11-24T10:37:44.661Z,67.29
2022-11-24T10:41:13.290Z,67.26
2022-11-24T10:44:16.260Z,66.85
2022-11-24T10:47:22.668Z,67.00
2022-11-24T10:50:32.708Z,66.89
2022-11-24T10:53:38.798Z,66.99
2022-11-24T10:56:42.893Z,67.09
2022-11-24T10:59:45.244Z,67.11
2022-11-24T11:02:50.107Z,67.15
2022-11-24T11:06:01.221Z,67.51
2022-11-24T11:09:06.962Z,67.21
2022-11-24T11:12:42.012Z,67.21
2022-11-24T11:15:35.631Z,67.00
2022-11-24T11:18:38.017Z,66.63
2022-11-24T11:21:40.831Z,66.43
2022-11-24T11:24:45.094Z,66.21
2022-11-24T11:27:48.352Z,66.38
2022-11-24T11:31:19.678Z,66.34
2022-11-24T11:34:29.839Z,65.81
2022-11-24T11:43:41.319Z,65.34
2022-11-24T11:46:45.054Z,64.84
2022-11-24T11:49:49.461Z,64.68
2022-11-24T11:53:13.855Z,64.95
2022-11-24T11:56:37.550Z,64.54
2022-11-24T11:59:59.113Z,64.20
2022-11-24T12:03:01.486Z,63.71
2022-11-24T12:06:39.359Z,63.73
2022-11-24T12:09:56.321Z,63.56
2022-11-24T12:13:14.117Z,62.62
2022-11-24T12:16:30.927Z,61.90
2022-11-24T12:19:39.709Z,59.70
2022-11-24T12:23:30.297Z,57.72
2022-11-24T12:26:38.575Z,54.10
2022-11-24T12:30:17.047Z,51.97
2022-11-24T12:33:51.083Z,51.89
2022-11-24T12:37:34.626Z,52.09
2022-11-24T12:41:18.243Z,51.31
2022-11-24T12:44:44.523Z,52.40
2022-11-24T12:48:26.244Z,52.40
2022-11-24T12:51:33.364Z,51.99
2022-11-24T12:54:40.406Z,53.05
2022-11-24T12:57:47.345Z,54.42
2022-11-24T13:01:04.772Z,55.36
2022-11-24T13:04:40.052Z,56.14
2022-11-24T13:07:42.645Z,57.23
2022-11-24T13:10:56.354Z,58.61
2022-11-24T13:14:30.830Z,59.42
2022-11-24T13:17:52.473Z,60.09
2022-11-24T13:21:00.287Z,60.67
2022-11-24T13:24:04.528Z,61.53
2022-11-24T13:27:16.373Z,61.86
2022-11-24T13:30:36.642Z,62.27
2022-11-24T13:33:40.130Z,62.59
2022-11-24T13:36:53.696Z,62.92
2022-11-24T13:40:04.820Z,63.06
2022-11-24T13:43:10.529Z,63.41
2022-11-24T13:46:13.322Z,63.57
2022-11-24T13:49:20.766Z,64.02
2022-11-24T13:52:43.605Z,64.20
2022-11-24T13:55:59.447Z,64.43
2022-11-24T13:59:24.472Z,64.60
2022-11-24T14:02:28.018Z,64.92
2022-11-24T14:05:39.051Z,64.82
2022-11-24T14:08:41.356Z,65.00
2022-11-24T14:11:46.676Z,65.13
2022-11-24T14:14:57.353Z,65.34
2022-11-24T14:17:59.904Z,65.61
2022-11-24T14:21:18.645Z,65.92
2022-11-24T14:24:27.101Z,65.89
2022-11-24T14:27:39.205Z,65.63
2022-11-24T14:30:41.848Z,65.95
2022-11-24T14:33:44.485Z,66.07
2022-11-24T14:36:48.580Z,66.59
2022-11-24T14:39:51.257Z,66.69
2022-11-24T14:42:53.923Z,67.06
2022-11-24T14:46:01.218Z,67.43
2022-11-24T14:49:04.955Z,67.65
2022-11-24T14:52:16.491Z,67.92
2022-11-24T14:55:35.439Z,68.22
2022-11-24T14:58:42.601Z,68.33
2022-11-24T15:01:45.432Z,68.61
2022-11-24T15:05:03.255Z,69.06
2022-11-24T15:08:06.437Z,69.13
2022-11-24T15:11:09.096Z,69.08
2022-11-24T15:14:34.628Z,69.18
2022-11-24T15:17:37.074Z,69.19
2022-11-24T15:20:44.763Z,69.37
2022-11-24T15:24:16.376Z,69.31
2022-11-24T15:27:18.975Z,69.46
2022-11-24T15:30:21.332Z,69.75
2022-11-24T15:33:23.939Z,69.93
2022-11-24T15:36:26.234Z,70.05
2022-11-24T15:39:28.815Z,70.29
2022-11-24T15:42:31.102Z,70.40
2022-11-24T15:45:34.639Z,70.54
2022-11-24T15:48:37.209Z,70.63
2022-11-24T15:51:43.595Z,70.88
2022-11-24T15:54:47.314Z,71.12
2022-11-24T15:57:51.957Z,71.24
2022-11-24T16:00:54.288Z,71.72
2022-11-24T16:03:57.356Z,71.80
2022-11-24T16:06:59.682Z,71.99
2022-11-24T16:10:02.293Z,72.12
2022-11-24T16:13:04.849Z,72.40
2022-11-24T16:16:09.867Z,72.48
2022-11-24T16:19:15.809Z,72.75
2022-11-24T16:22:18.375Z,73.02
2022-11-24T16:25:20.604Z,73.25
2022-11-24T16:28:24.813Z,73.37
2022-11-24T16:31:27.801Z,73.55
2022-11-24T16:34:30.392Z,74.22
2022-11-24T16:37:33.135Z,74.16
2022-11-24T16:40:35.664Z,74.04
2022-11-24T16:43:38.599Z,74.12
2022-11-24T16:46:41.112Z,74.43
2022-11-24T16:49:43.413Z,74.32
2022-11-24T16:52:45.949Z,74.66
2022-11-24T16:55:57.826Z,74.69
2022-11-24T16:59:00.832Z,74.87
2022-11-24T17:02:03.429Z,74.80
2022-11-24T17:05:07.654Z,74.95
2022-11-24T17:08:10.144Z,75.17
2022-11-24T17:11:23.720Z,75.22
2022-11-24T17:14:25.998Z,75.26
2022-11-24T17:17:28.674Z,75.00
2022-11-24T17:20:33.875Z,75.31
2022-11-24T17:23:37.346Z,75.46
2022-11-24T17:26:44.683Z,75.58
2022-11-24T17:29:50.484Z,75.70
2022-11-24T17:32:56.833Z,75.74
2022-11-24T17:36:04.786Z,75.89
2022-11-24T17:39:07.418Z,75.85
2022-11-24T17:42:11.810Z,75.68
2022-11-24T17:45:29.673Z,75.69
2022-11-24T17:48:36.255Z,75.66
2022-11-24T17:51:38.647Z,75.59
2022-11-24T17:54:48.446Z,75.49
2022-11-24T17:57:51.022Z,75.50
2022-11-24T18:00:53.833Z,75.54
2022-11-24T18:03:56.669Z,75.66
2022-11-24T18:06:59.082Z,75.36
2022-11-24T18:10:02.158Z,75.29
2022-11-24T18:13:18.226Z,75.40
2022-11-24T18:16:33.204Z,75.39
2022-11-24T18:19:38.694Z,75.43
2022-11-24T18:26:06.020Z,75.34
2022-11-24T18:29:12.274Z,75.28
2022-11-24T18:35:34.889Z,75.07
2022-11-24T18:38:37.611Z,74.87
2022-11-24T18:41:40.420Z,74.64
2022-11-24T18:44:45.429Z,74.67
2022-11-24T18:47:50.492Z,74.57
2022-11-24T18:50:54.997Z,74.38
2022-11-24T18:54:02.180Z,74.39
2022-11-24T18:57:05.012Z,74.54
2022-11-24T19:00:08.138Z,74.65
2022-11-24T19:03:10.579Z,74.58
2022-11-24T19:06:16.187Z,74.49
2022-11-24T19:09:22.679Z,74.26
2022-11-24T19:12:26.708Z,74.11
2022-11-24T19:15:34.100Z,73.89
2022-11-24T19:18:36.865Z,74.04
2022-11-24T19:21:40.761Z,74.19
2022-11-24T19:24:45.180Z,74.25
2022-11-24T19:27:47.638Z,74.36
2022-11-24T19:30:50.286Z,74.53
2022-11-24T19:33:54.671Z,74.80
2022-11-24T19:36:57.358Z,74.96
2022-11-24T19:39:59.839Z,75.15
2022-11-24T19:43:04.425Z,75.20
2022-11-24T19:46:12.786Z,75.23
2022-11-24T19:49:15.723Z,75.32
2022-11-24T19:52:18.171Z,75.33
2022-11-24T19:55:25.762Z,75.24
2022-11-24T19:58:29.944Z,75.24
2022-11-24T20:01:37.604Z,75.21
2022-11-24T20:04:44.011Z,75.24
2022-11-24T20:07:48.960Z,75.18
2022-11-24T20:10:54.603Z,75.08
2022-11-24T20:13:57.933Z,75.18
2022-11-24T20:17:00.863Z,75.18
2022-11-24T20:20:03.637Z,75.23
2022-11-24T20:23:06.542Z,75.17
2022-11-24T20:26:17.269Z,75.10
2022-11-24T20:29:20.594Z,75.19
2022-11-24T20:32:22.984Z,75.35
2022-11-24T20:35:26.001Z,75.32
2022-11-24T20:38:30.411Z,75.22
2022-11-24T20:41:35.298Z,75.21
2022-11-24T20:44:37.792Z,75.43
2022-11-24T20:47:40.416Z,75.48
2022-11-24T20:50:45.776Z,75.54
2022-11-24T20:53:56.053Z,75.64
2022-11-24T20:56:58.414Z,75.69
2022-11-24T21:00:01.871Z,75.59
2022-11-24T21:03:04.202Z,75.43
2022-11-24T21:06:08.567Z,75.26
2022-11-24T21:09:10.910Z,75.29
2022-11-24T21:12:13.978Z,75.16
2022-11-24T21:15:17.615Z,75.20
2022-11-24T21:18:22.022Z,75.24
2022-11-24T21:21:26.138Z,75.33
2022-11-24T21:24:31.164Z,75.37
2022-11-24T21:27:33.649Z,75.43
2022-11-24T21:30:37.556Z,75.23
2022-11-24T21:33:48.345Z,75.22
2022-11-24T21:36:50.891Z,75.31
2022-11-24T21:39:53.286Z,75.31
2022-11-24T21:43:01.161Z,75.37
2022-11-24T21:46:08.177Z,75.46
2022-11-24T21:49:10.868Z,75.66
2022-11-24T21:52:13.645Z,75.90
2022-11-24T21:55:16.737Z,76.13
2022-11-24T21:58:19.024Z,76.24
2022-11-24T22:01:27.376Z,76.37
2022-11-24T22:04:30.222Z,76.65
2022-11-24T22:07:32.823Z,76.70
2022-11-24T22:10:35.414Z,76.83
2022-11-24T22:13:38.420Z,76.95
2022-11-24T22:16:42.342Z,76.97
2022-11-24T22:19:44.643Z,76.97
2022-11-24T22:22:47.194Z,77.08
2022-11-24T22:25:53.585Z,77.04
2022-11-24T22:28:57.482Z,77.07
2022-11-24T22:31:59.957Z,76.93
2022-11-24T22:35:02.542Z,76.92
2022-11-24T22:38:04.802Z,76.84
2022-11-24T22:41:18.385Z,76.80
2022-11-24T22:44:20.699Z,76.86
2022-11-24T22:47:23.285Z,76.95
2022-11-24T22:50:25.593Z,77.02
2022-11-24T22:53:28.310Z,77.12
2022-11-24T22:56:33.695Z,77.01
2022-11-24T22:59:36.247Z,77.05
2022-11-24T23:02:38.500Z,76.96
2022-11-24T23:05:41.112Z,77.07
2022-11-24T23:08:43.856Z,77.00
2022-11-24T23:11:46.445Z,77.05
2022-11-24T23:14:48.770Z,77.11
2022-11-24T23:17:51.293Z,77.23
2022-11-24T23:20:53.616Z,77.26
2022-11-24T23:23:58.346Z,77.36
2022-11-24T23:27:03.263Z,77.41
2022-11-24T23:30:06.521Z,77.37
2022-11-24T23:33:08.804Z,77.31
2022-11-24T23:36:12.779Z,77.19
2022-11-24T23:39:15.279Z,77.06
2022-11-24T23:42:18.297Z,77.02
2022-11-24T23:45:20.770Z,76.96
2022-11-24T23:48:23.459Z,76.94
2022-11-24T23:51:28.350Z,76.91
2022-11-24T23:54:30.826Z,76.93
2022-11-24T23:57:33.229Z,76.92
